الصفحة الرئيسية
METAR-TAF:

METAR-TAF

مطار :

Izumo, اليابان

دائرة عرض: 35-25N, خط طول: 132-54E, ارتفاع: 2 متر

مراقبة الطقس الحالي

تاريخ ووقت الإصدار 42 دقيقة قبل الساعة 02:29UTC
ريح 18 عقدة من الغرب/الجنوب الغربي تتزايد حتى 29 عقدة
درجة الحرارة 26°درجة مئوية
الرطوبة 79%
ضغط 1009 hPa
الرؤية 10 كم أو أكثر
غيوم قليلة على ارتفاع 1500 قدم
غيوم متفرقة على ارتفاع 4000 قدم
غيوم مفككة

METAR: RJOC 250229Z 25018G29KT 9999 FEW015 SCT040 BKN/// 26/22 Q1009 RMK 1CU015 3SC040 A2979

زمن: 12:11 (03:11 UTC)

توقعات

تاريخ ووقت الإصدار 4ساعات و 2 دقيقة قبل الساعة 23:09UTC
التوقعات صالحة من25 الساعة 00 UTC إلى 26 الساعة 06 UTC
ريح 17 عقدة من الغرب/الجنوب الغربي
الرؤية 10 كم أو أكثر
غيوم قليلة على ارتفاع 2500 قدم
مؤقت
من 25 الساعة 01 UTC إلى 25 الساعة 08 UTC
ريح 22 عقدة من الغرب/الجنوب الغربي تتزايد حتى 32 عقدة
أصبح
من 25 الساعة 15 UTC إلى 25 الساعة 18 UTC
ريح 8 عقدة من الجنوب
أصبح
من 26 الساعة 00 UTC إلى 26 الساعة 03 UTC
ريح 6 عقدة من الشمال

TAF: RJOC 242309Z 2500/2606 24017KT 9999 FEW025 TEMPO 2501/2508 25022G32KT BECMG 2515/2518 17008KT BECMG 2600/2603 01006KT

أرصاد الطقس والتوقعات من أكثر من 4000 مطار (تقارير الطقس للمطار METAR والتنبؤ بالطقس بالمطارTAF).

المحطات المتاحة هي النقط الصفراء والحمراء على الخريطة.

حرك المؤشر فوق النقطة لمعرفة اسم المحطة.

ثم انقر لمعرفة أرصاد وتوقعات الطقس.

لتغيير الخارطة: اضغط على الأزرار الخضراء مع رمز الصليب الأسود للتكبير. على الزر الأخضر مع شرطة للتصغير، أو على الأسهم الخضراء للخرائط المجاورة.


METAR-TAF: